sensor_id;sensor_type;location;lat;lon;timestamp;temperature;humidity
23813;DHT22;12087;45.190;5.688;2023-04-26T00:03:33;11.40;99.60
23813;DHT22;12087;45.190;5.688;2023-04-26T00:08:57;11.30;99.90
23813;DHT22;12087;45.190;5.688;2023-04-26T00:14:19;11.20;99.90
23813;DHT22;12087;45.190;5.688;2023-04-26T00:19:41;11.10;99.90
23813;DHT22;12087;45.190;5.688;2023-04-26T00:25:05;11.20;99.90
23813;DHT22;12087;45.190;5.688;2023-04-26T00:30:28;11.10;99.90
23813;DHT22;12087;45.190;5.688;2023-04-26T00:35:50;11.10;99.90
23813;DHT22;12087;45.190;5.688;2023-04-26T00:41:14;10.90;99.90
23813;DHT22;12087;45.190;5.688;2023-04-26T00:46:36;10.90;99.90
23813;DHT22;12087;45.190;5.688;2023-04-26T00:51:58;10.80;99.90
23813;DHT22;12087;45.190;5.688;2023-04-26T00:57:22;10.70;99.90
23813;DHT22;12087;45.190;5.688;2023-04-26T01:02:45;10.60;99.90
23813;DHT22;12087;45.190;5.688;2023-04-26T01:08:07;10.70;99.90
23813;DHT22;12087;45.190;5.688;2023-04-26T01:13:31;10.60;99.90
23813;DHT22;12087;45.190;5.688;2023-04-26T01:18:53;10.60;99.90
23813;DHT22;12087;45.190;5.688;2023-04-26T01:24:18;10.60;99.90
23813;DHT22;12087;45.190;5.688;2023-04-26T01:29:40;10.60;99.90
23813;DHT22;12087;45.190;5.688;2023-04-26T01:35:02;10.40;99.90
23813;DHT22;12087;45.190;5.688;2023-04-26T01:40:26;10.30;99.90
23813;DHT22;12087;45.190;5.688;2023-04-26T01:45:48;10.30;99.90
23813;DHT22;12087;45.190;5.688;2023-04-26T01:51:11;10.20;99.90
23813;DHT22;12087;45.190;5.688;2023-04-26T01:56:34;10.30;99.90
23813;DHT22;12087;45.190;5.688;2023-04-26T02:01:56;10.30;99.90
23813;DHT22;12087;45.190;5.688;2023-04-26T02:07:19;10.30;99.90
23813;DHT22;12087;45.190;5.688;2023-04-26T02:12:42;10.30;99.90
23813;DHT22;12087;45.190;5.688;2023-04-26T02:18:04;10.20;99.90
23813;DHT22;12087;45.190;5.688;2023-04-26T02:23:27;10.20;99.90
23813;DHT22;12087;45.190;5.688;2023-04-26T02:28:50;10.30;99.90
23813;DHT22;12087;45.190;5.688;2023-04-26T02:34:12;10.20;99.90
23813;DHT22;12087;45.190;5.688;2023-04-26T02:39:53;10.10;99.90
23813;DHT22;12087;45.190;5.688;2023-04-26T02:46:00;10.10;99.90
23813;DHT22;12087;45.190;5.688;2023-04-26T02:51:47;10.00;99.90
23813;DHT22;12087;45.190;5.688;2023-04-26T02:57:53;10.00;99.90
23813;DHT22;12087;45.190;5.688;2023-04-26T03:03:50;10.00;99.90
23813;DHT22;12087;45.190;5.688;2023-04-26T03:09:25;10.00;99.90
23813;DHT22;12087;45.190;5.688;2023-04-26T03:15:00;10.00;99.90
23813;DHT22;12087;45.190;5.688;2023-04-26T03:20:44;9.90;99.90
23813;DHT22;12087;45.190;5.688;2023-04-26T03:26:23;9.90;99.90
23813;DHT22;12087;45.190;5.688;2023-04-26T03:31:45;9.80;99.90
23813;DHT22;12087;45.190;5.688;2023-04-26T03:37:09;9.80;99.90
23813;DHT22;12087;45.190;5.688;2023-04-26T03:42:39;9.70;99.90
23813;DHT22;12087;45.190;5.688;2023-04-26T03:49:00;9.80;99.90
23813;DHT22;12087;45.190;5.688;2023-04-26T03:54:38;9.70;99.90
23813;DHT22;12087;45.190;5.688;2023-04-26T04:00:36;9.70;99.90
23813;DHT22;12087;45.190;5.688;2023-04-26T04:06:08;9.60;99.90
23813;DHT22;12087;45.190;5.688;2023-04-26T04:11:31;9.60;99.90
23813;DHT22;12087;45.190;5.688;2023-04-26T04:16:54;9.60;99.90
23813;DHT22;12087;45.190;5.688;2023-04-26T04:22:16;9.50;99.90
23813;DHT22;12087;45.190;5.688;2023-04-26T04:27:40;9.60;99.90
23813;DHT22;12087;45.190;5.688;2023-04-26T04:33:03;9.50;99.90
23813;DHT22;12087;45.190;5.688;2023-04-26T04:38:25;9.50;99.90
23813;DHT22;12087;45.190;5.688;2023-04-26T04:43:50;9.50;99.90
23813;DHT22;12087;45.190;5.688;2023-04-26T04:49:13;9.40;99.90
23813;DHT22;12087;45.190;5.688;2023-04-26T04:54:35;9.40;99.90
23813;DHT22;12087;45.190;5.688;2023-04-26T04:59:59;9.40;99.90
23813;DHT22;12087;45.190;5.688;2023-04-26T05:05:30;9.40;99.90
23813;DHT22;12087;45.190;5.688;2023-04-26T05:10:52;9.40;99.90
23813;DHT22;12087;45.190;5.688;2023-04-26T05:16:16;9.40;99.90
23813;DHT22;12087;45.190;5.688;2023-04-26T05:21:38;9.40;99.90
23813;DHT22;12087;45.190;5.688;2023-04-26T05:27:01;9.40;99.90
23813;DHT22;12087;45.190;5.688;2023-04-26T05:32:26;9.40;99.90
23813;DHT22;12087;45.190;5.688;2023-04-26T05:37:53;9.30;99.90
23813;DHT22;12087;45.190;5.688;2023-04-26T05:43:30;9.20;99.90
23813;DHT22;12087;45.190;5.688;2023-04-26T05:48:56;9.20;99.90
23813;DHT22;12087;45.190;5.688;2023-04-26T05:54:19;9.30;99.90
23813;DHT22;12087;45.190;5.688;2023-04-26T05:59:49;9.40;99.90
23813;DHT22;12087;45.190;5.688;2023-04-26T06:05:16;9.50;99.90
23813;DHT22;12087;45.190;5.688;2023-04-26T06:10:41;9.70;99.90
23813;DHT22;12087;45.190;5.688;2023-04-26T06:16:04;9.80;99.90
23813;DHT22;12087;45.190;5.688;2023-04-26T06:21:28;9.90;99.90
23813;DHT22;12087;45.190;5.688;2023-04-26T06:26:51;10.10;99.90
23813;DHT22;12087;45.190;5.688;2023-04-26T06:32:13;10.20;99.90
23813;DHT22;12087;45.190;5.688;2023-04-26T06:37:37;10.30;99.90
23813;DHT22;12087;45.190;5.688;2023-04-26T06:42:59;10.40;99.90
23813;DHT22;12087;45.190;5.688;2023-04-26T06:48:23;10.50;99.90
23813;DHT22;12087;45.190;5.688;2023-04-26T06:53:47;10.50;99.90
23813;DHT22;12087;45.190;5.688;2023-04-26T06:59:10;10.60;99.90
23813;DHT22;12087;45.190;5.688;2023-04-26T07:04:32;10.80;99.90
23813;DHT22;12087;45.190;5.688;2023-04-26T07:09:56;10.90;99.90
23813;DHT22;12087;45.190;5.688;2023-04-26T07:15:18;11.00;99.90
23813;DHT22;12087;45.190;5.688;2023-04-26T07:20:40;11.00;99.90
23813;DHT22;12087;45.190;5.688;2023-04-26T07:26:04;11.10;99.90
23813;DHT22;12087;45.190;5.688;2023-04-26T07:31:26;11.30;99.90
23813;DHT22;12087;45.190;5.688;2023-04-26T07:36:48;11.40;99.90
23813;DHT22;12087;45.190;5.688;2023-04-26T07:42:12;11.50;99.90
23813;DHT22;12087;45.190;5.688;2023-04-26T07:47:34;11.60;99.90
23813;DHT22;12087;45.190;5.688;2023-04-26T07:53:04;11.90;99.90
23813;DHT22;12087;45.190;5.688;2023-04-26T07:58:34;12.00;99.90
23813;DHT22;12087;45.190;5.688;2023-04-26T08:03:56;12.30;99.90
23813;DHT22;12087;45.190;5.688;2023-04-26T08:09:24;12.40;99.90
23813;DHT22;12087;45.190;5.688;2023-04-26T08:14:52;12.80;99.90
23813;DHT22;12087;45.190;5.688;2023-04-26T08:20:14;13.00;99.90
23813;DHT22;12087;45.190;5.688;2023-04-26T08:25:36;13.40;99.90
23813;DHT22;12087;45.190;5.688;2023-04-26T08:31:09;13.60;99.90
23813;DHT22;12087;45.190;5.688;2023-04-26T08:36:37;14.00;99.90
23813;DHT22;12087;45.190;5.688;2023-04-26T08:42:11;14.20;99.90
23813;DHT22;12087;45.190;5.688;2023-04-26T08:47:39;14.40;99.90
23813;DHT22;12087;45.190;5.688;2023-04-26T08:53:02;14.40;99.90
23813;DHT22;12087;45.190;5.688;2023-04-26T08:58:24;14.80;99.90
23813;DHT22;12087;45.190;5.688;2023-04-26T09:03:48;14.90;99.90
23813;DHT22;12087;45.190;5.688;2023-04-26T09:09:12;15.10;99.80
23813;DHT22;12087;45.190;5.688;2023-04-26T09:14:38;15.30;99.10
23813;DHT22;12087;45.190;5.688;2023-04-26T09:20:19;15.40;97.70
23813;DHT22;12087;45.190;5.688;2023-04-26T09:25:41;15.50;97.50
23813;DHT22;12087;45.190;5.688;2023-04-26T09:31:03;15.60;97.70
23813;DHT22;12087;45.190;5.688;2023-04-26T09:36:27;15.80;94.20
23813;DHT22;12087;45.190;5.688;2023-04-26T09:41:49;15.70;93.40
23813;DHT22;12087;45.190;5.688;2023-04-26T09:47:12;15.90;92.00
23813;DHT22;12087;45.190;5.688;2023-04-26T09:52:42;15.90;91.40
23813;DHT22;12087;45.190;5.688;2023-04-26T09:58:09;15.90;91.40
23813;DHT22;12087;45.190;5.688;2023-04-26T10:03:33;16.10;90.50
23813;DHT22;12087;45.190;5.688;2023-04-26T10:08:57;16.20;90.50
23813;DHT22;12087;45.190;5.688;2023-04-26T10:14:19;16.30;92.00
23813;DHT22;12087;45.190;5.688;2023-04-26T10:19:42;16.50;90.00
23813;DHT22;12087;45.190;5.688;2023-04-26T10:25:09;16.60;88.50
23813;DHT22;12087;45.190;5.688;2023-04-26T10:30:31;16.80;90.10
23813;DHT22;12087;45.190;5.688;2023-04-26T10:36:04;16.90;86.70
23813;DHT22;12087;45.190;5.688;2023-04-26T10:41:33;17.40;87.00
23813;DHT22;12087;45.190;5.688;2023-04-26T10:46:55;17.40;82.20
23813;DHT22;12087;45.190;5.688;2023-04-26T10:52:18;17.80;85.50
23813;DHT22;12087;45.190;5.688;2023-04-26T10:57:48;18.20;80.10
23813;DHT22;12087;45.190;5.688;2023-04-26T11:03:10;18.10;79.90
23813;DHT22;12087;45.190;5.688;2023-04-26T11:08:33;18.30;78.20
23813;DHT22;12087;45.190;5.688;2023-04-26T11:14:01;18.50;76.10
23813;DHT22;12087;45.190;5.688;2023-04-26T11:19:23;18.80;74.20
23813;DHT22;12087;45.190;5.688;2023-04-26T11:24:49;19.10;71.30
23813;DHT22;12087;45.190;5.688;2023-04-26T11:30:14;19.40;68.40
23813;DHT22;12087;45.190;5.688;2023-04-26T11:35:39;19.40;65.50
23813;DHT22;12087;45.190;5.688;2023-04-26T11:41:01;19.50;65.90
23813;DHT22;12087;45.190;5.688;2023-04-26T11:46:25;19.80;62.60
23813;DHT22;12087;45.190;5.688;2023-04-26T11:51:48;20.10;59.80
23813;DHT22;12087;45.190;5.688;2023-04-26T11:57:13;20.50;58.70
23813;DHT22;12087;45.190;5.688;2023-04-26T12:02:37;20.70;54.30
23813;DHT22;12087;45.190;5.688;2023-04-26T12:08:01;20.90;54.40
23813;DHT22;12087;45.190;5.688;2023-04-26T12:13:24;21.00;56.20
23813;DHT22;12087;45.190;5.688;2023-04-26T12:18:50;21.40;53.20
23813;DHT22;12087;45.190;5.688;2023-04-26T12:24:22;21.80;49.40
23813;DHT22;12087;45.190;5.688;2023-04-26T12:29:45;21.90;49.10
23813;DHT22;12087;45.190;5.688;2023-04-26T12:35:09;22.20;47.50
23813;DHT22;12087;45.190;5.688;2023-04-26T12:40:31;22.40;42.90
23813;DHT22;12087;45.190;5.688;2023-04-26T12:46:06;22.40;48.10
23813;DHT22;12087;45.190;5.688;2023-04-26T12:51:40;22.50;47.10
23813;DHT22;12087;45.190;5.688;2023-04-26T12:57:02;22.70;47.80
23813;DHT22;12087;45.190;5.688;2023-04-26T13:02:26;22.80;44.50
23813;DHT22;12087;45.190;5.688;2023-04-26T13:07:50;23.10;45.00
23813;DHT22;12087;45.190;5.688;2023-04-26T13:13:13;23.20;46.40
23813;DHT22;12087;45.190;5.688;2023-04-26T13:18:35;23.30;46.50
23813;DHT22;12087;45.190;5.688;2023-04-26T13:23:59;23.40;40.80
23813;DHT22;12087;45.190;5.688;2023-04-26T13:29:21;23.50;40.90
23813;DHT22;12087;45.190;5.688;2023-04-26T13:34:43;23.80;42.40
23813;DHT22;12087;45.190;5.688;2023-04-26T13:40:09;24.00;39.80
23813;DHT22;12087;45.190;5.688;2023-04-26T13:45:32;24.10;40.00
23813;DHT22;12087;45.190;5.688;2023-04-26T13:50:54;24.10;42.30
23813;DHT22;12087;45.190;5.688;2023-04-26T13:56:18;24.30;39.80
23813;DHT22;12087;45.190;5.688;2023-04-26T14:01:40;24.40;41.80
23813;DHT22;12087;45.190;5.688;2023-04-26T14:07:03;24.50;39.00
23813;DHT22;12087;45.190;5.688;2023-04-26T14:12:27;24.60;41.20
23813;DHT22;12087;45.190;5.688;2023-04-26T14:17:50;24.30;40.50
23813;DHT22;12087;45.190;5.688;2023-04-26T14:23:12;23.90;42.10
23813;DHT22;12087;45.190;5.688;2023-04-26T14:28:36;23.80;42.10
23813;DHT22;12087;45.190;5.688;2023-04-26T14:33:58;23.60;40.10
23813;DHT22;12087;45.190;5.688;2023-04-26T14:39:20;23.30;41.80
23813;DHT22;12087;45.190;5.688;2023-04-26T14:44:44;23.20;42.90
23813;DHT22;12087;45.190;5.688;2023-04-26T14:50:08;23.20;43.70
23813;DHT22;12087;45.190;5.688;2023-04-26T14:55:33;23.00;47.00
23813;DHT22;12087;45.190;5.688;2023-04-26T15:00:56;22.80;46.70
23813;DHT22;12087;45.190;5.688;2023-04-26T15:06:19;22.60;48.10
23813;DHT22;12087;45.190;5.688;2023-04-26T15:11:41;22.40;47.40
23813;DHT22;12087;45.190;5.688;2023-04-26T15:17:05;22.30;46.90
23813;DHT22;12087;45.190;5.688;2023-04-26T15:22:27;22.00;49.30
23813;DHT22;12087;45.190;5.688;2023-04-26T15:27:49;21.80;50.70
23813;DHT22;12087;45.190;5.688;2023-04-26T15:33:15;21.70;50.30
23813;DHT22;12087;45.190;5.688;2023-04-26T15:38:38;21.60;50.10
23813;DHT22;12087;45.190;5.688;2023-04-26T15:44:01;21.40;51.70
23813;DHT22;12087;45.190;5.688;2023-04-26T15:49:25;21.40;51.20
23813;DHT22;12087;45.190;5.688;2023-04-26T15:54:47;21.30;51.00
23813;DHT22;12087;45.190;5.688;2023-04-26T16:00:10;21.10;53.50
23813;DHT22;12087;45.190;5.688;2023-04-26T16:05:35;21.10;53.30
23813;DHT22;12087;45.190;5.688;2023-04-26T16:10:58;21.00;53.50
23813;DHT22;12087;45.190;5.688;2023-04-26T16:16:20;20.70;53.60
23813;DHT22;12087;45.190;5.688;2023-04-26T16:21:44;20.60;53.70
23813;DHT22;12087;45.190;5.688;2023-04-26T16:27:06;20.50;54.60
23813;DHT22;12087;45.190;5.688;2023-04-26T16:32:29;20.40;54.60
23813;DHT22;12087;45.190;5.688;2023-04-26T16:37:52;20.40;55.50
23813;DHT22;12087;45.190;5.688;2023-04-26T16:43:15;20.30;55.70
23813;DHT22;12087;45.190;5.688;2023-04-26T16:48:38;20.20;56.40
23813;DHT22;12087;45.190;5.688;2023-04-26T16:54:01;20.20;57.90
23813;DHT22;12087;45.190;5.688;2023-04-26T16:59:23;20.20;57.30
23813;DHT22;12087;45.190;5.688;2023-04-26T17:04:47;20.20;57.60
23813;DHT22;12087;45.190;5.688;2023-04-26T17:10:11;20.20;59.40
23813;DHT22;12087;45.190;5.688;2023-04-26T17:15:33;20.20;57.50
23813;DHT22;12087;45.190;5.688;2023-04-26T17:20:55;20.10;57.50
23813;DHT22;12087;45.190;5.688;2023-04-26T17:26:19;20.10;58.70
23813;DHT22;12087;45.190;5.688;2023-04-26T17:31:41;20.00;59.50
23813;DHT22;12087;45.190;5.688;2023-04-26T17:37:04;20.00;57.60
23813;DHT22;12087;45.190;5.688;2023-04-26T17:42:28;19.90;60.30
23813;DHT22;12087;45.190;5.688;2023-04-26T17:47:50;19.80;58.90
23813;DHT22;12087;45.190;5.688;2023-04-26T17:53:12;19.70;59.70
23813;DHT22;12087;45.190;5.688;2023-04-26T17:58:36;19.60;61.40
23813;DHT22;12087;45.190;5.688;2023-04-26T18:03:58;19.50;65.00
23813;DHT22;12087;45.190;5.688;2023-04-26T18:09:20;19.40;65.60
23813;DHT22;12087;45.190;5.688;2023-04-26T18:14:44;19.30;66.00
23813;DHT22;12087;45.190;5.688;2023-04-26T18:20:07;19.20;66.40
23813;DHT22;12087;45.190;5.688;2023-04-26T18:25:30;19.10;68.60
23813;DHT22;12087;45.190;5.688;2023-04-26T18:30:56;19.00;68.90
23813;DHT22;12087;45.190;5.688;2023-04-26T18:36:19;18.90;67.90
23813;DHT22;12087;45.190;5.688;2023-04-26T18:41:42;18.80;69.30
23813;DHT22;12087;45.190;5.688;2023-04-26T18:47:05;18.70;72.20
23813;DHT22;12087;45.190;5.688;2023-04-26T18:52:28;18.60;70.20
23813;DHT22;12087;45.190;5.688;2023-04-26T18:57:50;18.50;72.20
23813;DHT22;12087;45.190;5.688;2023-04-26T19:03:13;18.50;72.60
23813;DHT22;12087;45.190;5.688;2023-04-26T19:08:36;18.40;73.50
23813;DHT22;12087;45.190;5.688;2023-04-26T19:13:58;18.20;75.20
23813;DHT22;12087;45.190;5.688;2023-04-26T19:19:22;18.10;76.90
23813;DHT22;12087;45.190;5.688;2023-04-26T19:24:47;17.90;75.70
23813;DHT22;12087;45.190;5.688;2023-04-26T19:30:11;17.90;79.10
23813;DHT22;12087;45.190;5.688;2023-04-26T19:35:35;17.70;79.30
23813;DHT22;12087;45.190;5.688;2023-04-26T19:40:59;17.60;80.20
23813;DHT22;12087;45.190;5.688;2023-04-26T19:46:22;17.50;82.10
23813;DHT22;12087;45.190;5.688;2023-04-26T19:52:08;17.40;83.20
23813;DHT22;12087;45.190;5.688;2023-04-26T20:09:51;17.10;85.20
23813;DHT22;12087;45.190;5.688;2023-04-26T20:15:14;17.00;84.10
23813;DHT22;12087;45.190;5.688;2023-04-26T20:20:36;17.00;83.30
23813;DHT22;12087;45.190;5.688;2023-04-26T20:26:00;17.00;87.30
23813;DHT22;12087;45.190;5.688;2023-04-26T20:31:22;16.90;87.50
23813;DHT22;12087;45.190;5.688;2023-04-26T20:36:44;16.80;86.90
23813;DHT22;12087;45.190;5.688;2023-04-26T20:42:08;16.80;90.70
23813;DHT22;12087;45.190;5.688;2023-04-26T20:47:30;16.60;90.40
23813;DHT22;12087;45.190;5.688;2023-04-26T20:52:53;16.60;90.50
23813;DHT22;12087;45.190;5.688;2023-04-26T20:58:16;16.60;91.90
23813;DHT22;12087;45.190;5.688;2023-04-26T21:03:38;16.50;92.50
23813;DHT22;12087;45.190;5.688;2023-04-26T21:09:01;16.50;93.20
23813;DHT22;12087;45.190;5.688;2023-04-26T21:14:25;16.40;93.10
23813;DHT22;12087;45.190;5.688;2023-04-26T21:19:47;16.30;92.70
23813;DHT22;12087;45.190;5.688;2023-04-26T21:25:09;16.30;93.10
23813;DHT22;12087;45.190;5.688;2023-04-26T21:30:34;16.30;94.90
23813;DHT22;12087;45.190;5.688;2023-04-26T21:35:58;16.30;95.10
23813;DHT22;12087;45.190;5.688;2023-04-26T21:41:20;16.20;95.80
23813;DHT22;12087;45.190;5.688;2023-04-26T21:46:44;16.20;96.30
23813;DHT22;12087;45.190;5.688;2023-04-26T21:52:07;16.10;96.70
23813;DHT22;12087;45.190;5.688;2023-04-26T21:57:29;16.10;98.10
23813;DHT22;12087;45.190;5.688;2023-04-26T22:02:53;16.10;98.10
23813;DHT22;12087;45.190;5.688;2023-04-26T22:08:15;16.10;99.20
23813;DHT22;12087;45.190;5.688;2023-04-26T22:13:37;16.00;99.80
23813;DHT22;12087;45.190;5.688;2023-04-26T22:19:01;15.90;99.50
23813;DHT22;12087;45.190;5.688;2023-04-26T22:24:23;15.90;99.90
23813;DHT22;12087;45.190;5.688;2023-04-26T22:29:46;15.80;99.90
23813;DHT22;12087;45.190;5.688;2023-04-26T22:35:10;15.70;99.90
23813;DHT22;12087;45.190;5.688;2023-04-26T22:40:32;15.60;99.90
23813;DHT22;12087;45.190;5.688;2023-04-26T22:45:54;15.50;99.90
23813;DHT22;12087;45.190;5.688;2023-04-26T22:51:18;15.50;99.90
23813;DHT22;12087;45.190;5.688;2023-04-26T22:56:40;15.40;99.90
23813;DHT22;12087;45.190;5.688;2023-04-26T23:02:02;15.40;99.90
23813;DHT22;12087;45.190;5.688;2023-04-26T23:07:26;15.40;99.90
23813;DHT22;12087;45.190;5.688;2023-04-26T23:12:48;15.40;99.90
23813;DHT22;12087;45.190;5.688;2023-04-26T23:18:10;15.30;99.90
23813;DHT22;12087;45.190;5.688;2023-04-26T23:23:34;15.30;99.90
23813;DHT22;12087;45.190;5.688;2023-04-26T23:28:57;15.20;99.90
23813;DHT22;12087;45.190;5.688;2023-04-26T23:34:19;15.20;99.90
23813;DHT22;12087;45.190;5.688;2023-04-26T23:39:42;15.20;99.90
23813;DHT22;12087;45.190;5.688;2023-04-26T23:45:05;15.10;99.90
23813;DHT22;12087;45.190;5.688;2023-04-26T23:50:28;15.00;99.90
23813;DHT22;12087;45.190;5.688;2023-04-26T23:55:52;15.00;99.90
